sensor_id;sensor_type;location;lat;lon;timestamp;pressure;altitude;pressure_sealevel;temperature;humidity
19108;BME280;9686;48.832;9.126;2022-10-18T00:01:56;99129.63;;;14.71;100.00
19108;BME280;9686;48.832;9.126;2022-10-18T00:04:21;99137.44;;;14.75;100.00
19108;BME280;9686;48.832;9.126;2022-10-18T00:06:47;99133.88;;;14.82;100.00
19108;BME280;9686;48.832;9.126;2022-10-18T00:09:12;99135.66;;;14.85;100.00
19108;BME280;9686;48.832;9.126;2022-10-18T00:11:38;99139.94;;;14.95;100.00
19108;BME280;9686;48.832;9.126;2022-10-18T00:14:03;99142.53;;;14.95;100.00
19108;BME280;9686;48.832;9.126;2022-10-18T00:16:29;99140.72;;;15.03;100.00
19108;BME280;9686;48.832;9.126;2022-10-18T00:18:54;99145.13;;;15.01;100.00
19108;BME280;9686;48.832;9.126;2022-10-18T00:21:22;99144.19;;;15.05;100.00
19108;BME280;9686;48.832;9.126;2022-10-18T00:23:48;99149.50;;;15.01;100.00
19108;BME280;9686;48.832;9.126;2022-10-18T00:26:18;99153.84;;;15.03;100.00
19108;BME280;9686;48.832;9.126;2022-10-18T00:28:44;99153.81;;;15.09;100.00
19108;BME280;9686;48.832;9.126;2022-10-18T00:31:19;99145.91;;;15.11;100.00
19108;BME280;9686;48.832;9.126;2022-10-18T00:33:46;99149.44;;;15.10;100.00
19108;BME280;9686;48.832;9.126;2022-10-18T00:36:13;99146.78;;;15.13;100.00
19108;BME280;9686;48.832;9.126;2022-10-18T00:38:39;99140.66;;;15.11;100.00
19108;BME280;9686;48.832;9.126;2022-10-18T00:41:06;99145.91;;;15.13;100.00
19108;BME280;9686;48.832;9.126;2022-10-18T00:43:50;99138.91;;;15.13;100.00
19108;BME280;9686;48.832;9.126;2022-10-18T00:46:15;99134.56;;;15.10;100.00
19108;BME280;9686;48.832;9.126;2022-10-18T00:48:40;99149.41;;;15.11;100.00
19108;BME280;9686;48.832;9.126;2022-10-18T00:51:06;99149.41;;;15.11;100.00
19108;BME280;9686;48.832;9.126;2022-10-18T00:53:31;99151.16;;;15.13;100.00
19108;BME280;9686;48.832;9.126;2022-10-18T00:55:57;99145.03;;;15.12;100.00
19108;BME280;9686;48.832;9.126;2022-10-18T00:58:23;99137.06;;;15.21;100.00
19108;BME280;9686;48.832;9.126;2022-10-18T01:00:48;99149.31;;;15.22;100.00
19108;BME280;9686;48.832;9.126;2022-10-18T01:03:14;99147.56;;;15.23;100.00
19108;BME280;9686;48.832;9.126;2022-10-18T01:05:43;99144.94;;;15.21;100.00
19108;BME280;9686;48.832;9.126;2022-10-18T01:21:42;99120.47;;;15.18;100.00
19108;BME280;9686;48.832;9.126;2022-10-18T01:32:31;99133.50;;;15.27;100.00
19108;BME280;9686;48.832;9.126;2022-10-18T01:35:03;99134.41;;;15.24;100.00
19108;BME280;9686;48.832;9.126;2022-10-18T01:37:30;99137.00;;;15.27;100.00
19108;BME280;9686;48.832;9.126;2022-10-18T01:39:57;99138.72;;;15.28;100.00
19108;BME280;9686;48.832;9.126;2022-10-18T01:42:24;99137.84;;;15.29;100.00
19108;BME280;9686;48.832;9.126;2022-10-18T01:44:51;99146.53;;;15.34;100.00
19108;BME280;9686;48.832;9.126;2022-10-18T01:47:18;99142.16;;;15.38;100.00
19108;BME280;9686;48.832;9.126;2022-10-18T01:49:44;99143.81;;;15.47;100.00
19108;BME280;9686;48.832;9.126;2022-10-18T01:52:14;99144.72;;;15.44;100.00
19108;BME280;9686;48.832;9.126;2022-10-18T01:54:42;99142.84;;;15.54;100.00
19108;BME280;9686;48.832;9.126;2022-10-18T02:00:00;99138.50;;;15.51;100.00
19108;BME280;9686;48.832;9.126;2022-10-18T02:03:21;99142.03;;;15.49;100.00
19108;BME280;9686;48.832;9.126;2022-10-18T02:05:50;99139.31;;;15.55;100.00
19108;BME280;9686;48.832;9.126;2022-10-18T02:10:53;99133.31;;;15.45;100.00
19108;BME280;9686;48.832;9.126;2022-10-18T02:13:21;99142.97;;;15.45;100.00
19108;BME280;9686;48.832;9.126;2022-10-18T02:15:53;99145.59;;;15.43;100.00
19108;BME280;9686;48.832;9.126;2022-10-18T02:18:24;99142.91;;;15.48;100.00
19108;BME280;9686;48.832;9.126;2022-10-18T02:20:53;99142.09;;;15.42;100.00
19108;BME280;9686;48.832;9.126;2022-10-18T02:23:21;99132.47;;;15.43;100.00
19108;BME280;9686;48.832;9.126;2022-10-18T02:25:49;99141.22;;;15.42;100.00
19108;BME280;9686;48.832;9.126;2022-10-18T02:28:15;99128.88;;;15.50;100.00
19108;BME280;9686;48.832;9.126;2022-10-18T02:30:50;99114.78;;;15.56;100.00
19108;BME280;9686;48.832;9.126;2022-10-18T02:33:34;99116.63;;;15.49;100.00
19108;BME280;9686;48.832;9.126;2022-10-18T02:36:14;99114.03;;;15.46;100.00
19108;BME280;9686;48.832;9.126;2022-10-18T02:38:43;99114.84;;;15.51;100.00
19108;BME280;9686;48.832;9.126;2022-10-18T02:41:10;99102.66;;;15.46;100.00
19108;BME280;9686;48.832;9.126;2022-10-18T02:43:35;99101.81;;;15.42;100.00
19108;BME280;9686;48.832;9.126;2022-10-18T02:46:01;99111.31;;;15.52;100.00
19108;BME280;9686;48.832;9.126;2022-10-18T02:48:26;99107.84;;;15.50;100.00
19108;BME280;9686;48.832;9.126;2022-10-18T02:50:51;99117.47;;;15.51;100.00
19108;BME280;9686;48.832;9.126;2022-10-18T02:53:17;99116.63;;;15.48;100.00
19108;BME280;9686;48.832;9.126;2022-10-18T02:55:43;99106.97;;;15.51;100.00
19108;BME280;9686;48.832;9.126;2022-10-18T02:58:08;99106.94;;;15.53;100.00
19108;BME280;9686;48.832;9.126;2022-10-18T03:00:33;99103.47;;;15.49;100.00
19108;BME280;9686;48.832;9.126;2022-10-18T03:02:58;99108.78;;;15.46;100.00
19108;BME280;9686;48.832;9.126;2022-10-18T03:05:24;99100.84;;;15.49;100.00
19108;BME280;9686;48.832;9.126;2022-10-18T03:07:49;99099.94;;;15.53;100.00
19108;BME280;9686;48.832;9.126;2022-10-18T03:10:14;99103.31;;;15.66;100.00
19108;BME280;9686;48.832;9.126;2022-10-18T03:12:39;99101.63;;;15.60;100.00
19108;BME280;9686;48.832;9.126;2022-10-18T03:15:05;99101.59;;;15.63;100.00
19108;BME280;9686;48.832;9.126;2022-10-18T03:17:30;99108.63;;;15.63;100.00
19108;BME280;9686;48.832;9.126;2022-10-18T03:19:56;99099.84;;;15.64;100.00
19108;BME280;9686;48.832;9.126;2022-10-18T03:22:21;99100.75;;;15.57;100.00
19108;BME280;9686;48.832;9.126;2022-10-18T03:24:47;99096.38;;;15.57;100.00
19108;BME280;9686;48.832;9.126;2022-10-18T03:27:12;99094.66;;;15.55;100.00
19108;BME280;9686;48.832;9.126;2022-10-18T03:29:37;99083.25;;;15.54;100.00
19108;BME280;9686;48.832;9.126;2022-10-18T03:32:02;99092.06;;;15.50;100.00
19108;BME280;9686;48.832;9.126;2022-10-18T03:34:28;99085.94;;;15.50;100.00
19108;BME280;9686;48.832;9.126;2022-10-18T03:36:53;99085.03;;;15.52;100.00
19108;BME280;9686;48.832;9.126;2022-10-18T03:39:19;99087.66;;;15.52;100.00
19108;BME280;9686;48.832;9.126;2022-10-18T03:41:44;99091.25;;;15.47;100.00
19108;BME280;9686;48.832;9.126;2022-10-18T03:44:09;99083.28;;;15.53;100.00
19108;BME280;9686;48.832;9.126;2022-10-18T03:46:35;99082.47;;;15.49;100.00
19108;BME280;9686;48.832;9.126;2022-10-18T03:49:00;99067.53;;;15.51;100.00
19108;BME280;9686;48.832;9.126;2022-10-18T03:51:25;99077.25;;;15.46;100.00
19108;BME280;9686;48.832;9.126;2022-10-18T03:53:51;99072.00;;;15.45;100.00
19108;BME280;9686;48.832;9.126;2022-10-18T03:56:16;99079.03;;;15.42;100.00
19108;BME280;9686;48.832;9.126;2022-10-18T03:58:41;99083.44;;;15.40;100.00
19108;BME280;9686;48.832;9.126;2022-10-18T04:01:07;99079.88;;;15.46;100.00
19108;BME280;9686;48.832;9.126;2022-10-18T04:03:32;99079.06;;;15.39;100.00
19108;BME280;9686;48.832;9.126;2022-10-18T04:05:57;99086.03;;;15.43;100.00
19108;BME280;9686;48.832;9.126;2022-10-18T04:08:25;99074.72;;;15.34;100.00
19108;BME280;9686;48.832;9.126;2022-10-18T04:10:50;99081.81;;;15.29;100.00
19108;BME280;9686;48.832;9.126;2022-10-18T04:13:16;99081.53;;;15.52;100.00
19108;BME280;9686;48.832;9.126;2022-10-18T04:15:42;99081.59;;;15.49;100.00
19108;BME280;9686;48.832;9.126;2022-10-18T04:18:07;99080.75;;;15.47;100.00
19108;BME280;9686;48.832;9.126;2022-10-18T04:20:32;99094.59;;;15.58;100.00
19108;BME280;9686;48.832;9.126;2022-10-18T04:22:58;99080.59;;;15.57;100.00
19108;BME280;9686;48.832;9.126;2022-10-18T04:25:23;99090.25;;;15.55;100.00
19108;BME280;9686;48.832;9.126;2022-10-18T04:27:49;99091.97;;;15.58;100.00
19108;BME280;9686;48.832;9.126;2022-10-18T04:30:15;99093.75;;;15.56;100.00
19108;BME280;9686;48.832;9.126;2022-10-18T04:32:40;99091.16;;;15.53;100.00
19108;BME280;9686;48.832;9.126;2022-10-18T04:35:06;99095.50;;;15.58;100.00
19108;BME280;9686;48.832;9.126;2022-10-18T04:37:32;99103.38;;;15.61;100.00
19108;BME280;9686;48.832;9.126;2022-10-18T04:39:57;99102.50;;;15.61;100.00
19108;BME280;9686;48.832;9.126;2022-10-18T04:42:23;99111.25;;;15.60;100.00
19108;BME280;9686;48.832;9.126;2022-10-18T04:44:48;99108.63;;;15.57;100.00
19108;BME280;9686;48.832;9.126;2022-10-18T04:47:14;99107.75;;;15.59;100.00
19108;BME280;9686;48.832;9.126;2022-10-18T04:49:40;99107.75;;;15.62;100.00
19108;BME280;9686;48.832;9.126;2022-10-18T04:52:06;99101.59;;;15.63;100.00
19108;BME280;9686;48.832;9.126;2022-10-18T04:54:31;99103.31;;;15.66;100.00
19108;BME280;9686;48.832;9.126;2022-10-18T04:56:56;99102.41;;;15.68;100.00
19108;BME280;9686;48.832;9.126;2022-10-18T04:59:22;99112.16;;;15.62;100.00
19108;BME280;9686;48.832;9.126;2022-10-18T05:01:47;99109.44;;;15.66;100.00
19108;BME280;9686;48.832;9.126;2022-10-18T05:04:12;99113.91;;;15.58;100.00
19108;BME280;9686;48.832;9.126;2022-10-18T05:06:38;99120.94;;;15.53;100.00
19108;BME280;9686;48.832;9.126;2022-10-18T05:09:03;99124.44;;;15.54;100.00
19108;BME280;9686;48.832;9.126;2022-10-18T05:11:28;99120.09;;;15.53;100.00
19108;BME280;9686;48.832;9.126;2022-10-18T05:13:53;99121.00;;;15.49;100.00
19108;BME280;9686;48.832;9.126;2022-10-18T05:16:19;99112.13;;;15.60;100.00
19108;BME280;9686;48.832;9.126;2022-10-18T05:18:44;99107.69;;;15.67;100.00
19108;BME280;9686;48.832;9.126;2022-10-18T05:21:09;99117.34;;;15.66;100.00
19108;BME280;9686;48.832;9.126;2022-10-18T05:23:36;99116.50;;;15.60;100.00
19108;BME280;9686;48.832;9.126;2022-10-18T05:26:03;99114.78;;;15.62;100.00
19108;BME280;9686;48.832;9.126;2022-10-18T05:28:29;99107.72;;;15.65;100.00
19108;BME280;9686;48.832;9.126;2022-10-18T05:33:30;99109.50;;;15.60;100.00
19108;BME280;9686;48.832;9.126;2022-10-18T05:35:55;99107.75;;;15.61;100.00
19108;BME280;9686;48.832;9.126;2022-10-18T05:38:21;99107.72;;;15.65;100.00
19108;BME280;9686;48.832;9.126;2022-10-18T05:40:46;99113.88;;;15.63;100.00
19108;BME280;9686;48.832;9.126;2022-10-18T05:43:12;99103.09;;;15.83;100.00
19108;BME280;9686;48.832;9.126;2022-10-18T05:45:37;99091.59;;;15.93;100.00
19108;BME280;9686;48.832;9.126;2022-10-18T05:48:02;99090.56;;;16.03;100.00
19108;BME280;9686;48.832;9.126;2022-10-18T05:50:29;99081.50;;;16.24;100.00
19108;BME280;9686;48.832;9.126;2022-10-18T05:52:55;99073.47;;;16.31;100.00
19108;BME280;9686;48.832;9.126;2022-10-18T05:55:21;99074.88;;;16.54;100.00
19108;BME280;9686;48.832;9.126;2022-10-18T05:57:50;99066.13;;;16.53;100.00
19108;BME280;9686;48.832;9.126;2022-10-18T06:00:16;99073.06;;;16.57;100.00
19108;BME280;9686;48.832;9.126;2022-10-18T06:02:41;99066.03;;;16.58;100.00
19108;BME280;9686;48.832;9.126;2022-10-18T06:05:06;99066.84;;;16.61;100.00
19108;BME280;9686;48.832;9.126;2022-10-18T06:07:32;99070.28;;;16.70;100.00
19108;BME280;9686;48.832;9.126;2022-10-18T06:09:57;99078.28;;;16.60;100.00
19108;BME280;9686;48.832;9.126;2022-10-18T06:12:23;99070.31;;;16.65;100.00
19108;BME280;9686;48.832;9.126;2022-10-18T06:14:48;99078.22;;;16.68;100.00
19108;BME280;9686;48.832;9.126;2022-10-18T06:17:13;99071.19;;;16.64;100.00
19108;BME280;9686;48.832;9.126;2022-10-18T06:19:38;99068.44;;;16.75;100.00
19108;BME280;9686;48.832;9.126;2022-10-18T06:22:04;99078.06;;;16.76;100.00
19108;BME280;9686;48.832;9.126;2022-10-18T06:24:29;99066.41;;;16.89;100.00
19108;BME280;9686;48.832;9.126;2022-10-18T06:26:56;99068.91;;;16.98;100.00
19108;BME280;9686;48.832;9.126;2022-10-18T06:29:21;99082.00;;;17.03;100.00
19108;BME280;9686;48.832;9.126;2022-10-18T06:31:46;99072.19;;;17.11;100.00
19108;BME280;9686;48.832;9.126;2022-10-18T06:34:11;99069.41;;;17.17;100.00
19108;BME280;9686;48.832;9.126;2022-10-18T06:36:37;99067.47;;;17.28;100.00
19108;BME280;9686;48.832;9.126;2022-10-18T06:39:02;99070.03;;;17.31;100.00
19108;BME280;9686;48.832;9.126;2022-10-18T06:41:27;99067.25;;;17.39;100.00
19108;BME280;9686;48.832;9.126;2022-10-18T06:43:53;99068.91;;;17.44;100.00
19108;BME280;9686;48.832;9.126;2022-10-18T06:46:21;99069.78;;;17.45;100.00
19108;BME280;9686;48.832;9.126;2022-10-18T06:48:46;99078.56;;;17.45;100.00
19108;BME280;9686;48.832;9.126;2022-10-18T06:51:11;99074.88;;;17.54;100.00
19108;BME280;9686;48.832;9.126;2022-10-18T06:53:38;99070.44;;;17.56;100.00
19108;BME280;9686;48.832;9.126;2022-10-18T06:56:07;99077.41;;;17.58;100.00
19108;BME280;9686;48.832;9.126;2022-10-18T06:58:33;99087.97;;;17.57;100.00
19108;BME280;9686;48.832;9.126;2022-10-18T07:01:05;99084.34;;;17.63;100.00
19108;BME280;9686;48.832;9.126;2022-10-18T07:03:31;99075.44;;;17.71;100.00
19108;BME280;9686;48.832;9.126;2022-10-18T07:05:59;99077.19;;;17.69;100.00
19108;BME280;9686;48.832;9.126;2022-10-18T07:08:26;99086.94;;;17.64;100.00
19108;BME280;9686;48.832;9.126;2022-10-18T07:10:52;99087.94;;;17.58;100.00
19108;BME280;9686;48.832;9.126;2022-10-18T07:13:18;99088.81;;;17.59;100.00
19108;BME280;9686;48.832;9.126;2022-10-18T07:15:43;99086.91;;;17.67;100.00
19108;BME280;9686;48.832;9.126;2022-10-18T07:18:09;99093.03;;;17.69;100.00
19108;BME280;9686;48.832;9.126;2022-10-18T07:20:34;99093.66;;;17.82;100.00
19108;BME280;9686;48.832;9.126;2022-10-18T07:23:00;99099.00;;;17.79;100.00
19108;BME280;9686;48.832;9.126;2022-10-18T07:25:25;99098.81;;;17.88;100.00
19108;BME280;9686;48.832;9.126;2022-10-18T07:27:50;99100.63;;;17.84;100.00
19108;BME280;9686;48.832;9.126;2022-10-18T07:30:16;99096.88;;;17.96;100.00
19108;BME280;9686;48.832;9.126;2022-10-18T07:32:41;99099.41;;;18.01;100.00
19108;BME280;9686;48.832;9.126;2022-10-18T07:35:07;99099.34;;;18.04;100.00
19108;BME280;9686;48.832;9.126;2022-10-18T07:37:32;99094.09;;;18.02;100.00
19108;BME280;9686;48.832;9.126;2022-10-18T07:39:57;99096.56;;;18.10;100.00
19108;BME280;9686;48.832;9.126;2022-10-18T07:42:22;99097.31;;;18.15;100.00
19108;BME280;9686;48.832;9.126;2022-10-18T07:44:48;99091.00;;;18.24;100.00
19108;BME280;9686;48.832;9.126;2022-10-18T07:47:14;99096.31;;;18.22;100.00
19108;BME280;9686;48.832;9.126;2022-10-18T07:49:39;99095.13;;;18.35;100.00
19108;BME280;9686;48.832;9.126;2022-10-18T07:52:05;99094.13;;;18.39;100.00
19108;BME280;9686;48.832;9.126;2022-10-18T07:54:30;99085.97;;;18.50;100.00
19108;BME280;9686;48.832;9.126;2022-10-18T07:56:55;99094.63;;;18.57;100.00
19108;BME280;9686;48.832;9.126;2022-10-18T07:59:21;99099.03;;;18.56;100.00
19108;BME280;9686;48.832;9.126;2022-10-18T08:01:46;99091.03;;;18.59;100.00
19108;BME280;9686;48.832;9.126;2022-10-18T08:04:11;99091.78;;;18.66;100.00
19108;BME280;9686;48.832;9.126;2022-10-18T08:06:37;99106.59;;;18.71;100.00
19108;BME280;9686;48.832;9.126;2022-10-18T08:09:02;99100.25;;;18.80;100.00
19108;BME280;9686;48.832;9.126;2022-10-18T08:11:28;99109.00;;;18.82;100.00
19108;BME280;9686;48.832;9.126;2022-10-18T08:13:53;99104.47;;;18.87;100.00
19108;BME280;9686;48.832;9.126;2022-10-18T08:16:22;99111.09;;;19.03;100.00
19108;BME280;9686;48.832;9.126;2022-10-18T08:18:47;99109.50;;;18.96;100.00
19108;BME280;9686;48.832;9.126;2022-10-18T08:21:14;99107.63;;;19.01;100.00
19108;BME280;9686;48.832;9.126;2022-10-18T08:23:40;99113.31;;;19.19;100.00
19108;BME280;9686;48.832;9.126;2022-10-18T08:26:16;99114.53;;;19.07;100.00
19108;BME280;9686;48.832;9.126;2022-10-18T08:28:42;99121.41;;;19.13;100.00
19108;BME280;9686;48.832;9.126;2022-10-18T08:31:13;99124.97;;;19.12;100.00
19108;BME280;9686;48.832;9.126;2022-10-18T08:33:41;99123.03;;;19.18;100.00
19108;BME280;9686;48.832;9.126;2022-10-18T08:36:10;99125.56;;;19.23;100.00
19108;BME280;9686;48.832;9.126;2022-10-18T08:38:37;99124.50;;;19.30;100.00
19108;BME280;9686;48.832;9.126;2022-10-18T08:44:16;99115.41;;;19.40;100.00
19108;BME280;9686;48.832;9.126;2022-10-18T08:46:47;99127.59;;;19.46;100.00
19108;BME280;9686;48.832;9.126;2022-10-18T08:49:26;99114.41;;;19.44;100.00
19108;BME280;9686;48.832;9.126;2022-10-18T08:51:54;99123.56;;;19.65;100.00
19108;BME280;9686;48.832;9.126;2022-10-18T08:54:28;99119.22;;;19.62;100.00
19108;BME280;9686;48.832;9.126;2022-10-18T08:56:58;99133.28;;;19.64;100.00
19108;BME280;9686;48.832;9.126;2022-10-18T08:59:24;99131.28;;;19.73;100.00
19108;BME280;9686;48.832;9.126;2022-10-18T09:15:15;99148.25;;;20.55;100.00
19108;BME280;9686;48.832;9.126;2022-10-18T09:17:53;99147.25;;;20.59;100.00
19108;BME280;9686;48.832;9.126;2022-10-18T09:20:24;99146.16;;;20.37;100.00
19108;BME280;9686;48.832;9.126;2022-10-18T09:22:58;99153.81;;;20.17;100.00
19108;BME280;9686;48.832;9.126;2022-10-18T09:25:36;99148.16;;;19.99;100.00
19108;BME280;9686;48.832;9.126;2022-10-18T09:36:21;99151.44;;;19.78;100.00
19108;BME280;9686;48.832;9.126;2022-10-18T09:38:50;99160.97;;;19.50;100.00
19108;BME280;9686;48.832;9.126;2022-10-18T09:41:25;99158.19;;;19.22;100.00
19108;BME280;9686;48.832;9.126;2022-10-18T09:44:18;99162.59;;;19.21;100.00
19108;BME280;9686;48.832;9.126;2022-10-18T09:47:02;99160.66;;;19.29;100.00
19108;BME280;9686;48.832;9.126;2022-10-18T09:49:37;99156.19;;;19.31;100.00
19108;BME280;9686;48.832;9.126;2022-10-18T09:52:12;99159.31;;;19.46;100.00
19108;BME280;9686;48.832;9.126;2022-10-18T09:54:45;99160.00;;;19.55;100.00
19108;BME280;9686;48.832;9.126;2022-10-18T09:57:34;99149.56;;;19.82;100.00
19108;BME280;9686;48.832;9.126;2022-10-18T10:00:00;99156.56;;;20.14;100.00
19108;BME280;9686;48.832;9.126;2022-10-18T10:02:27;99154.69;;;20.17;100.00
19108;BME280;9686;48.832;9.126;2022-10-18T10:04:52;99151.00;;;20.23;100.00
19108;BME280;9686;48.832;9.126;2022-10-18T10:07:26;99147.84;;;20.10;100.00
19108;BME280;9686;48.832;9.126;2022-10-18T10:10:05;99151.75;;;19.97;100.00
19108;BME280;9686;48.832;9.126;2022-10-18T10:12:37;99156.63;;;20.12;100.00
19108;BME280;9686;48.832;9.126;2022-10-18T10:15:18;99149.31;;;20.20;100.00
19108;BME280;9686;48.832;9.126;2022-10-18T10:17:52;99161.19;;;20.37;100.00
19108;BME280;9686;48.832;9.126;2022-10-18T10:20:44;99145.69;;;20.52;100.00
19108;BME280;9686;48.832;9.126;2022-10-18T10:23:15;99163.53;;;20.47;100.00
19108;BME280;9686;48.832;9.126;2022-10-18T10:25:49;99158.63;;;20.63;100.00
19108;BME280;9686;48.832;9.126;2022-10-18T10:28:22;99155.78;;;20.69;100.00
19108;BME280;9686;48.832;9.126;2022-10-18T10:30:48;99162.97;;;20.66;100.00
19108;BME280;9686;48.832;9.126;2022-10-18T10:33:34;99155.47;;;20.78;100.00
19108;BME280;9686;48.832;9.126;2022-10-18T10:36:02;99158.63;;;20.91;100.00
19108;BME280;9686;48.832;9.126;2022-10-18T10:38:30;99151.56;;;21.16;100.00
19108;BME280;9686;48.832;9.126;2022-10-18T10:40:55;99137.31;;;20.94;100.00
19108;BME280;9686;48.832;9.126;2022-10-18T10:46:04;99138.81;;;21.01;100.00
19108;BME280;9686;48.832;9.126;2022-10-18T10:48:33;99142.66;;;20.92;100.00
19108;BME280;9686;48.832;9.126;2022-10-18T10:51:06;99144.59;;;20.87;100.00
19108;BME280;9686;48.832;9.126;2022-10-18T10:53:56;99143.09;;;21.05;100.00
19108;BME280;9686;48.832;9.126;2022-10-18T10:56:28;99137.34;;;21.19;100.00
19108;BME280;9686;48.832;9.126;2022-10-18T10:58:57;99140.34;;;21.36;100.00
19108;BME280;9686;48.832;9.126;2022-10-18T11:01:30;99134.97;;;21.63;100.00
19108;BME280;9686;48.832;9.126;2022-10-18T11:04:21;99140.69;;;21.75;100.00
19108;BME280;9686;48.832;9.126;2022-10-18T11:06:49;99138.69;;;21.57;100.00
19108;BME280;9686;48.832;9.126;2022-10-18T11:09:44;99134.97;;;21.63;100.00
19108;BME280;9686;48.832;9.126;2022-10-18T11:12:23;99134.41;;;21.78;100.00
19108;BME280;9686;48.832;9.126;2022-10-18T11:20:30;99120.84;;;22.32;100.00
19108;BME280;9686;48.832;9.126;2022-10-18T11:22:59;99124.41;;;22.55;100.00
19108;BME280;9686;48.832;9.126;2022-10-18T11:25:52;99119.28;;;22.50;100.00
19108;BME280;9686;48.832;9.126;2022-10-18T11:28:29;99119.53;;;22.66;100.00
19108;BME280;9686;48.832;9.126;2022-10-18T11:39:57;99116.63;;;22.50;100.00
19108;BME280;9686;48.832;9.126;2022-10-18T11:42:34;99120.56;;;22.40;100.00
19108;BME280;9686;48.832;9.126;2022-10-18T11:45:25;99116.94;;;22.42;100.00
19108;BME280;9686;48.832;9.126;2022-10-18T11:48:00;99117.88;;;22.18;100.00
19108;BME280;9686;48.832;9.126;2022-10-18T11:50:47;99115.50;;;22.10;100.00
19108;BME280;9686;48.832;9.126;2022-10-18T11:59:24;99120.22;;;21.54;100.00
19108;BME280;9686;48.832;9.126;2022-10-18T12:04:22;99112.63;;;21.68;100.00
19108;BME280;9686;48.832;9.126;2022-10-18T12:06:53;99114.38;;;21.69;100.00
19108;BME280;9686;48.832;9.126;2022-10-18T12:11:59;99116.75;;;22.00;100.00
19108;BME280;9686;48.832;9.126;2022-10-18T12:14:29;99106.16;;;22.24;100.00
19108;BME280;9686;48.832;9.126;2022-10-18T12:17:02;99108.63;;;22.28;100.00
19108;BME280;9686;48.832;9.126;2022-10-18T12:19:30;99111.41;;;22.25;100.00
19108;BME280;9686;48.832;9.126;2022-10-18T12:22:05;99099.09;;;22.23;100.00
19108;BME280;9686;48.832;9.126;2022-10-18T12:24:33;99107.00;;;22.24;100.00
19108;BME280;9686;48.832;9.126;2022-10-18T12:27:00;99105.09;;;22.28;100.00
19108;BME280;9686;48.832;9.126;2022-10-18T12:29:49;99111.94;;;22.33;100.00
19108;BME280;9686;48.832;9.126;2022-10-18T12:32:21;99102.00;;;22.17;100.00
19108;BME280;9686;48.832;9.126;2022-10-18T12:34:52;99106.22;;;22.22;100.00
19108;BME280;9686;48.832;9.126;2022-10-18T12:40:15;99100.00;;;21.75;100.00
19108;BME280;9686;48.832;9.126;2022-10-18T12:42:47;99109.41;;;21.60;100.00
19108;BME280;9686;48.832;9.126;2022-10-18T12:45:23;99105.00;;;21.59;100.00
19108;BME280;9686;48.832;9.126;2022-10-18T12:47:49;99111.28;;;21.57;100.00
19108;BME280;9686;48.832;9.126;2022-10-18T12:50:31;99115.06;;;21.74;100.00
19108;BME280;9686;48.832;9.126;2022-10-18T12:55:34;99098.63;;;21.65;100.00
19108;BME280;9686;48.832;9.126;2022-10-18T12:58:04;99097.03;;;21.59;100.00
19108;BME280;9686;48.832;9.126;2022-10-18T13:14:05;99095.59;;;22.22;100.00
19108;BME280;9686;48.832;9.126;2022-10-18T13:24:36;99104.69;;;22.38;100.00
19108;BME280;9686;48.832;9.126;2022-10-18T13:32:37;99101.66;;;22.48;100.00
19108;BME280;9686;48.832;9.126;2022-10-18T13:35:42;99097.41;;;22.65;100.00
19108;BME280;9686;48.832;9.126;2022-10-18T13:41:15;99099.25;;;22.41;100.00
19108;BME280;9686;48.832;9.126;2022-10-18T13:58:02;99118.34;;;22.06;100.00
19108;BME280;9686;48.832;9.126;2022-10-18T14:00:59;99112.81;;;22.12;100.00
19108;BME280;9686;48.832;9.126;2022-10-18T14:03:42;99103.13;;;22.09;100.00
19108;BME280;9686;48.832;9.126;2022-10-18T14:06:19;99108.25;;;22.15;100.00
19108;BME280;9686;48.832;9.126;2022-10-18T14:11:40;99111.44;;;21.77;100.00
19108;BME280;9686;48.832;9.126;2022-10-18T14:14:14;99114.03;;;21.78;100.00
19108;BME280;9686;48.832;9.126;2022-10-18T14:19:30;99115.38;;;21.42;100.00
19108;BME280;9686;48.832;9.126;2022-10-18T14:22:10;99117.25;;;21.38;100.00
19108;BME280;9686;48.832;9.126;2022-10-18T14:24:39;99116.22;;;21.42;100.00
19108;BME280;9686;48.832;9.126;2022-10-18T14:27:24;99125.34;;;21.35;100.00
19108;BME280;9686;48.832;9.126;2022-10-18T14:30:11;99126.28;;;21.33;100.00
19108;BME280;9686;48.832;9.126;2022-10-18T14:32:46;99129.03;;;21.30;100.00
19108;BME280;9686;48.832;9.126;2022-10-18T14:35:16;99128.00;;;21.34;100.00
19108;BME280;9686;48.832;9.126;2022-10-18T14:37:42;99134.03;;;21.12;100.00
19108;BME280;9686;48.832;9.126;2022-10-18T14:42:55;99135.56;;;21.19;100.00
19108;BME280;9686;48.832;9.126;2022-10-18T14:45:25;99128.56;;;21.17;100.00
19108;BME280;9686;48.832;9.126;2022-10-18T14:47:50;99126.56;;;21.25;100.00
19108;BME280;9686;48.832;9.126;2022-10-18T14:50:20;99123.91;;;21.25;100.00
19108;BME280;9686;48.832;9.126;2022-10-18T14:52:46;99116.81;;;21.26;100.00
19108;BME280;9686;48.832;9.126;2022-10-18T14:55:30;99117.56;;;21.29;100.00
19108;BME280;9686;48.832;9.126;2022-10-18T14:57:57;99115.78;;;21.30;100.00
19108;BME280;9686;48.832;9.126;2022-10-18T15:00:33;99128.38;;;21.23;100.00
19108;BME280;9686;48.832;9.126;2022-10-18T15:03:00;99125.97;;;21.15;100.00
19108;BME280;9686;48.832;9.126;2022-10-18T15:05:27;99127.59;;;21.19;100.00
19108;BME280;9686;48.832;9.126;2022-10-18T15:07:52;99134.03;;;21.12;100.00
19108;BME280;9686;48.832;9.126;2022-10-18T15:10:21;99128.97;;;21.05;100.00
19108;BME280;9686;48.832;9.126;2022-10-18T15:12:48;99130.06;;;20.99;100.00
19108;BME280;9686;48.832;9.126;2022-10-18T15:15:19;99139.09;;;20.93;100.00
19108;BME280;9686;48.832;9.126;2022-10-18T15:17:45;99132.91;;;20.93;100.00
19108;BME280;9686;48.832;9.126;2022-10-18T15:22:47;99129.72;;;20.83;100.00
19108;BME280;9686;48.832;9.126;2022-10-18T15:25:17;99134.28;;;20.78;100.00
19108;BME280;9686;48.832;9.126;2022-10-18T15:27:53;99133.28;;;20.82;100.00
19108;BME280;9686;48.832;9.126;2022-10-18T15:30:24;99130.25;;;20.67;100.00
19108;BME280;9686;48.832;9.126;2022-10-18T15:32:54;99126.03;;;20.61;100.00
19108;BME280;9686;48.832;9.126;2022-10-18T15:35:32;99135.59;;;20.65;100.00